Time;durP1;ratioP1;P1;durP2;ratioP2;P2;SDS_P1;SDS_P2;PMS_P1;PMS_P2;Temp;Humidity;BMP_temperature;BMP_pressure;BME280_temperature;BME280_humidity;BME280_pressure;Samples;Min_cycle;Max_cycle;Signal;HPM_P1;HPM_P2
2021/10/13 00:00:20;;;;;;;;;8.75;7.75;;;;;16.02;67.81;100470.94;146606;565;46021;-72
2021/10/13 00:03:01;;;;;;;;;10.25;9.50;;;;;16.04;67.30;100485.81;146601;574;46016;-72
2021/10/13 00:05:35;;;;;;;;;9.00;9.00;;;;;16.06;67.43;100472.78;146606;619;45045;-72
2021/10/13 00:08:09;;;;;;;;;9.00;9.00;;;;;16.06;67.00;100481.50;146603;628;47012;-72
2021/10/13 00:10:44;;;;;;;;;11.00;9.50;;;;;16.05;66.86;100481.50;146605;574;46020;-75
2021/10/13 00:13:25;;;;;;;;;8.50;7.75;;;;;16.04;66.60;100477.97;146604;664;46017;-71
2021/10/13 00:16:01;;;;;;;;;10.00;10.00;;;;;16.08;66.89;100473.72;146600;600;46020;-72
2021/10/13 00:19:00;;;;;;;;;9.00;8.00;;;;;16.10;66.76;100470.28;146603;639;46016;-72
2021/10/13 00:21:35;;;;;;;;;7.00;7.00;;;;;16.11;67.22;100473.78;146605;599;46021;-71
2021/10/13 00:24:30;;;;;;;;;9.25;8.25;;;;;16.12;66.94;100476.44;146593;622;48012;-72
2021/10/13 00:27:04;;;;;;;;;9.50;8.50;;;;;16.14;66.34;100473.88;146607;565;46010;-71
2021/10/13 00:29:38;;;;;;;;;9.00;8.50;;;;;16.14;65.23;100479.09;146604;575;46012;-71
2021/10/13 00:32:13;;;;;;;;;10.00;8.50;;;;;16.13;66.73;100478.19;146606;596;46010;-71
2021/10/13 00:34:47;;;;;;;;;10.00;9.00;;;;;16.10;66.90;100483.34;146602;666;46017;-73
2021/10/13 00:37:21;;;;;;;;;8.00;8.00;;;;;16.03;66.23;100488.41;146604;579;47010;-72
2021/10/13 00:39:56;;;;;;;;;12.75;12.75;;;;;15.96;66.79;100487.38;146602;593;46016;-72
2021/10/13 00:42:30;;;;;;;;;12.75;10.25;;;;;15.90;66.17;100482.84;146605;625;46010;-72
2021/10/13 00:45:06;;;;;;;;;8.75;8.75;;;;;15.88;65.39;100489.75;146602;652;46030;-72
2021/10/13 00:47:46;;;;;;;;;9.00;8.50;;;;;15.89;65.75;100491.56;146605;565;46020;-73
2021/10/13 00:50:22;;;;;;;;;11.00;10.00;;;;;15.93;65.95;100487.28;146601;655;46914;-72
2021/10/13 00:52:56;;;;;;;;;11.00;10.00;;;;;15.95;64.71;100493.44;146606;636;46020;-70
2021/10/13 00:55:30;;;;;;;;;14.25;13.00;;;;;15.99;65.00;100492.69;146600;590;46016;-72
2021/10/13 00:58:04;;;;;;;;;13.00;11.00;;;;;16.04;65.17;100493.66;146604;573;47010;-74
2021/10/13 01:00:58;;;;;;;;;10.50;9.25;;;;;16.04;65.55;100490.16;146601;580;46012;-75
2021/10/13 01:04:09;;;;;;;;;11.25;9.25;;;;;13.87;65.59;100136.19;146605;636;46012;-76
2021/10/13 01:07:00;;;;;;;;;10.25;10.00;;;;;15.92;65.85;100506.44;146604;656;46013;-76
2021/10/13 01:09:42;;;;;;;;;10.00;9.25;;;;;15.89;66.01;100511.59;146604;632;46020;-75
2021/10/13 01:12:53;;;;;;;;;10.50;10.25;;;;;15.84;65.73;100507.97;146603;576;46016;-77
2021/10/13 01:15:57;;;;;;;;;9.75;9.75;;;;;15.82;65.55;100500.06;146604;571;46020;-77
2021/10/13 01:19:04;;;;;;;;;11.75;9.25;;;;;15.84;65.58;100500.12;146602;584;46016;-76
2021/10/13 01:22:13;;;;;;;;;10.00;9.50;;;;;15.88;65.36;100504.56;146604;576;46021;-74
2021/10/13 01:25:20;;;;;;;;;13.50;12.75;;;;;14.69;65.73;100304.56;146602;566;46016;-74
2021/10/13 01:28:00;;;;;;;;;11.75;11.00;;;;;15.80;66.09;100491.31;146603;609;46021;-73
2021/10/13 01:30:46;;;;;;;;;11.50;7.50;;;;;15.76;66.50;100504.25;146600;708;46016;-72
2021/10/13 01:33:28;;;;;;;;;10.25;9.75;;;;;15.69;66.83;100506.69;146604;574;46020;-71
2021/10/13 01:36:06;;;;;;;;;13.00;11.25;;;;;15.64;66.96;100513.50;146605;582;46012;-71
2021/10/13 01:38:45;;;;;;;;;9.25;9.00;;;;;15.58;66.93;100509.84;146605;565;45022;-71
2021/10/13 01:41:22;;;;;;;;;9.50;8.50;;;;;15.52;67.05;100507.06;146601;683;46017;-71
2021/10/13 01:43:58;;;;;;;;;13.75;10.25;;;;;15.51;67.32;100505.28;146604;578;46021;-72
2021/10/13 01:46:33;;;;;;;;;12.75;11.50;;;;;15.46;67.43;100506.03;146599;660;46016;-72
2021/10/13 01:49:09;;;;;;;;;8.00;8.00;;;;;15.39;67.52;100506.72;146607;571;46021;-72
2021/10/13 01:51:44;;;;;;;;;7.00;7.00;;;;;15.35;67.73;100507.47;146604;600;46016;-73
2021/10/13 01:54:19;;;;;;;;;13.00;11.75;;;;;15.29;68.03;100507.28;146604;569;46020;-73
2021/10/13 01:56:53;;;;;;;;;11.00;11.00;;;;;15.24;67.96;100506.28;146601;587;46017;-71
2021/10/13 01:59:31;;;;;;;;;13.25;11.00;;;;;15.20;68.22;100504.41;146606;601;46012;-73
2021/10/13 02:02:06;;;;;;;;;9.50;9.50;;;;;15.17;68.44;100507.84;146601;626;46016;-73
2021/10/13 02:04:47;;;;;;;;;13.00;12.00;;;;;15.11;67.90;100499.81;146600;611;46021;-74
2021/10/13 02:07:23;;;;;;;;;10.50;8.25;;;;;15.06;68.31;100510.97;146601;579;46016;-76
2021/10/13 02:09:59;;;;;;;;;13.50;9.75;;;;;14.99;68.39;100509.91;146605;569;46010;-76
2021/10/13 02:12:37;;;;;;;;;13.00;12.25;;;;;14.92;68.38;100514.06;146600;677;46017;-70
2021/10/13 02:15:14;;;;;;;;;11.25;9.75;;;;;14.84;68.26;100509.44;146607;578;45022;-70
2021/10/13 02:17:51;;;;;;;;;11.75;10.75;;;;;14.79;68.97;100506.66;146602;635;46034;-71
2021/10/13 02:20:27;;;;;;;;;9.25;8.50;;;;;14.71;68.95;100524.72;146606;654;46020;-72
2021/10/13 02:23:03;;;;;;;;;12.00;10.00;;;;;14.59;69.13;100521.72;146602;610;46016;-73
2021/10/13 02:25:41;;;;;;;;;11.00;10.00;;;;;14.50;69.33;100522.28;146606;612;46020;-75
2021/10/13 02:28:18;;;;;;;;;8.75;7.25;;;;;14.44;69.53;100526.41;146601;571;46016;-75
2021/10/13 02:30:53;;;;;;;;;10.25;8.75;;;;;14.37;69.57;100530.56;146604;574;46020;-77
2021/10/13 02:33:27;;;;;;;;;9.25;8.50;;;;;14.35;69.90;100524.38;146603;637;47012;-79
2021/10/13 02:36:01;;;;;;;;;10.25;9.25;;;;;14.30;69.55;100523.38;146605;580;47010;-76
2021/10/13 02:38:36;;;;;;;;;11.50;9.00;;;;;14.26;69.64;100532.78;146602;714;46016;-78
2021/10/13 02:41:10;;;;;;;;;12.25;10.50;;;;;14.27;69.40;100538.91;146605;680;46021;-80
2021/10/13 02:43:44;;;;;;;;;9.50;7.75;;;;;14.28;69.70;100538.06;146600;678;46028;-78
2021/10/13 02:46:55;;;;;;;;;12.50;11.25;;;;;14.31;69.40;100539.06;146605;655;46020;-79
2021/10/13 02:49:49;;;;;;;;;10.25;8.75;;;;;14.36;69.09;100539.22;146602;595;46017;-80
2021/10/13 02:53:12;;;;;;;;;7.50;7.50;;;;;13.18;68.58;100326.75;146605;579;46020;-79
2021/10/13 02:55:53;;;;;;;;;10.50;9.25;;;;;14.43;68.65;100538.56;146601;565;46017;-77
2021/10/13 02:58:51;;;;;;;;;9.75;9.75;;;;;14.49;68.61;100546.59;146603;576;46020;-77
2021/10/13 03:01:28;;;;;;;;;7.75;6.75;;;;;14.57;68.46;100556.44;146603;593;46016;-78
2021/10/13 03:04:04;;;;;;;;;6.75;6.25;;;;;14.63;68.34;100561.84;146606;718;46021;-78
2021/10/13 03:06:47;;;;;;;;;9.75;7.75;;;;;14.68;68.65;100565.50;146599;681;46016;-79
2021/10/13 03:09:24;;;;;;;;;9.00;9.00;;;;;14.69;68.40;100565.53;146603;616;47010;-77
2021/10/13 03:12:03;;;;;;;;;9.00;7.50;;;;;14.70;68.76;100566.41;146602;570;46016;-77
2021/10/13 03:14:38;;;;;;;;;10.50;10.50;;;;;14.69;68.73;100564.66;146603;564;47012;-78
2021/10/13 03:17:13;;;;;;;;;11.25;10.00;;;;;14.67;69.01;100564.62;146601;681;46017;-78
2021/10/13 03:19:48;;;;;;;;;9.75;8.50;;;;;14.69;69.72;100570.75;146604;570;46020;-78
2021/10/13 03:22:24;;;;;;;;;9.25;9.25;;;;;14.66;69.64;100568.03;146600;600;46016;-77
2021/10/13 03:24:58;;;;;;;;;11.25;9.50;;;;;14.66;69.32;100564.56;146604;581;46021;-77
2021/10/13 03:27:32;;;;;;;;;8.50;8.50;;;;;14.66;69.06;100562.81;146604;719;46016;-77
2021/10/13 03:30:07;;;;;;;;;13.00;12.50;;;;;14.69;69.34;100569.88;146607;613;46012;-77
2021/10/13 03:32:41;;;;;;;;;10.75;10.00;;;;;14.71;68.98;100570.81;146600;666;46017;-78
2021/10/13 03:35:23;;;;;;;;;11.75;11.75;;;;;14.75;68.74;100567.47;146602;617;46020;-80
2021/10/13 03:37:59;;;;;;;;;10.00;10.00;;;;;14.78;68.88;100572.78;146605;663;45913;-78
2021/10/13 03:40:35;;;;;;;;;11.50;11.50;;;;;14.80;68.48;100571.12;146605;588;47010;-77
2021/10/13 03:43:09;;;;;;;;;12.25;10.25;;;;;14.81;68.59;100567.66;146602;694;46016;-74
2021/10/13 03:45:43;;;;;;;;;10.25;10.00;;;;;14.83;68.82;100573.81;146603;606;47008;-74
2021/10/13 03:48:17;;;;;;;;;10.50;10.25;;;;;14.86;68.42;100570.38;146603;630;46017;-73
2021/10/13 03:50:51;;;;;;;;;11.00;9.25;;;;;14.90;68.44;100578.38;146603;639;46020;-76
2021/10/13 03:53:25;;;;;;;;;57.00;47.00;;;;;14.95;68.54;100579.44;146602;622;46012;-77
2021/10/13 03:55:59;;;;;;;;;14.25;14.25;;;;;15.01;68.46;100590.06;146603;616;46020;-76
2021/10/13 03:58:33;;;;;;;;;15.50;14.00;;;;;15.06;68.14;100587.56;146603;584;46033;-74
2021/10/13 04:01:07;;;;;;;;;13.25;12.00;;;;;15.10;68.02;100593.78;146606;604;46020;-74
2021/10/13 04:03:40;;;;;;;;;14.50;12.25;;;;;15.09;68.22;100587.66;146599;606;46017;-75
2021/10/13 04:06:14;;;;;;;;;12.50;9.75;;;;;15.07;68.32;100597.16;146603;620;46020;-74
2021/10/13 04:08:48;;;;;;;;;12.25;11.25;;;;;15.05;68.27;100593.66;146604;594;46017;-74
2021/10/13 04:11:22;;;;;;;;;11.75;11.50;;;;;15.04;68.26;100590.97;146603;608;46020;-77
2021/10/13 04:13:56;;;;;;;;;13.50;10.50;;;;;15.05;68.23;100600.59;146598;566;47018;-77
2021/10/13 04:16:30;;;;;;;;;8.50;8.50;;;;;15.02;68.13;100598.78;146605;576;46021;-73
2021/10/13 04:19:04;;;;;;;;;11.00;10.00;;;;;15.01;68.19;100594.38;146602;564;46017;-73
2021/10/13 04:21:38;;;;;;;;;11.25;11.25;;;;;14.95;68.17;100595.09;146604;680;46020;-74
2021/10/13 04:24:12;;;;;;;;;14.25;12.75;;;;;13.87;68.15;100407.25;146602;602;46017;-74
2021/10/13 04:26:46;;;;;;;;;14.75;12.50;;;;;14.93;68.46;100598.47;146604;590;46020;-74
2021/10/13 04:29:19;;;;;;;;;13.75;13.25;;;;;14.91;68.35;100605.38;146603;601;47012;-74
2021/10/13 04:31:53;;;;;;;;;14.75;14.25;;;;;14.89;68.29;100607.94;146607;792;46010;-82
2021/10/13 04:34:27;;;;;;;;;13.00;12.75;;;;;14.89;68.57;100614.88;146601;571;46016;-81
2021/10/13 04:37:01;;;;;;;;;16.75;15.25;;;;;14.87;68.47;100604.41;146606;594;46020;-80
2021/10/13 04:39:35;;;;;;;;;13.50;13.50;;;;;14.89;68.51;100609.66;146603;640;46016;-82
2021/10/13 04:42:09;;;;;;;;;16.75;14.50;;;;;14.90;68.77;100611.44;146607;598;46012;-81
2021/10/13 04:44:43;;;;;;;;;12.75;12.75;;;;;14.86;68.86;100620.00;146602;627;46016;-80
2021/10/13 04:47:17;;;;;;;;;13.25;12.50;;;;;14.82;68.99;100623.34;146605;587;46021;-79
2021/10/13 04:49:50;;;;;;;;;14.25;11.25;;;;;14.73;68.78;100624.81;146605;580;46016;-78
2021/10/13 04:52:24;;;;;;;;;15.00;13.50;;;;;14.66;69.07;100640.22;146606;573;46029;-77
2021/10/13 04:54:58;;;;;;;;;12.50;12.50;;;;;14.58;69.28;100629.56;146603;662;47013;-77
2021/10/13 04:57:32;;;;;;;;;13.00;10.75;;;;;14.49;69.49;100634.44;146606;579;47010;-76
2021/10/13 05:00:08;;;;;;;;;13.00;11.25;;;;;14.43;69.22;100634.22;146603;597;46017;-78
2021/10/13 05:02:44;;;;;;;;;13.50;13.50;;;;;14.38;69.50;100636.66;146600;703;47012;-77
2021/10/13 05:05:17;;;;;;;;;16.25;14.50;;;;;14.35;69.66;100639.16;146602;611;47012;-76
2021/10/13 05:07:51;;;;;;;;;16.75;14.75;;;;;14.30;69.86;100651.16;146607;597;45022;-77
2021/10/13 05:10:26;;;;;;;;;17.75;17.75;;;;;14.29;69.73;100655.47;146604;649;47012;-77
2021/10/13 05:13:01;;;;;;;;;15.50;15.00;;;;;14.31;69.59;100664.25;146605;653;46012;-76
2021/10/13 05:15:35;;;;;;;;;11.50;11.25;;;;;14.37;69.54;100663.59;146602;570;46017;-78
2021/10/13 05:18:10;;;;;;;;;15.75;15.25;;;;;14.48;69.62;100663.94;146605;566;46010;-76
2021/10/13 05:20:44;;;;;;;;;17.25;14.75;;;;;14.59;69.43;100669.56;146600;644;47012;-74
2021/10/13 05:23:18;;;;;;;;;20.25;17.75;;;;;14.67;69.22;100671.63;146604;608;46020;-75
2021/10/13 05:25:52;;;;;;;;;14.50;13.00;;;;;14.70;69.26;100682.16;146600;606;47012;-76
2021/10/13 05:28:26;;;;;;;;;12.25;12.25;;;;;14.69;69.37;100682.97;146608;595;45022;-75
2021/10/13 05:30:59;;;;;;;;;15.00;13.25;;;;;14.63;69.32;100680.16;146600;722;46031;-75
2021/10/13 05:33:34;;;;;;;;;14.25;13.75;;;;;14.59;69.22;100680.91;146600;666;46020;-75
2021/10/13 05:36:08;;;;;;;;;15.75;13.50;;;;;14.60;69.21;100685.28;146601;569;47012;-75
2021/10/13 05:38:42;;;;;;;;;12.50;12.50;;;;;14.61;69.11;100687.06;146605;566;46010;-73
2021/10/13 05:41:16;;;;;;;;;17.00;15.50;;;;;14.63;69.81;100690.59;146599;581;47012;-74
2021/10/13 05:43:49;;;;;;;;;19.25;15.75;;;;;14.66;69.61;100695.91;146606;658;45022;-75
2021/10/13 05:46:23;;;;;;;;;17.50;17.50;;;;;14.61;69.42;100694.91;146599;631;47021;-75
2021/10/13 05:48:57;;;;;;;;;17.25;16.75;;;;;14.62;69.30;100695.78;146605;570;46020;-74
2021/10/13 05:51:31;;;;;;;;;18.25;17.25;;;;;14.70;69.64;100697.81;146604;589;46012;-78
2021/10/13 05:54:05;;;;;;;;;19.25;19.25;;;;;14.82;69.40;100702.53;146604;670;46021;-77
2021/10/13 05:56:39;;;;;;;;;17.50;17.50;;;;;14.91;69.49;100702.84;146600;569;46016;-78
2021/10/13 05:59:13;;;;;;;;;17.25;14.00;;;;;15.00;69.14;100708.37;146600;579;46020;-77
2021/10/13 06:01:47;;;;;;;;;16.50;14.25;;;;;15.05;69.06;100710.28;146603;589;46016;-80
2021/10/13 06:04:21;;;;;;;;;16.25;13.75;;;;;15.07;68.98;100714.69;146601;596;47010;-77
2021/10/13 06:06:55;;;;;;;;;16.00;15.75;;;;;15.10;69.07;100713.91;146598;609;46018;-78
2021/10/13 06:09:29;;;;;;;;;14.75;14.50;;;;;15.14;68.86;100716.69;146602;611;46021;-77
2021/10/13 06:12:05;;;;;;;;;20.75;19.00;;;;;15.23;68.64;100714.38;146599;602;46021;-78
2021/10/13 06:14:39;;;;;;;;;31.50;30.25;;;;;15.33;68.53;100718.16;146603;565;46021;-78
2021/10/13 06:17:13;;;;;;;;;55.25;44.25;;;;;15.47;68.44;100727.31;146597;570;47914;-78
2021/10/13 06:19:47;;;;;;;;;73.75;63.50;;;;;15.63;67.68;100730.41;146600;569;46020;-76
2021/10/13 06:22:21;;;;;;;;;58.00;47.00;;;;;15.74;67.13;100729.03;146599;583;46031;-80
2021/10/13 06:24:56;;;;;;;;;27.00;26.25;;;;;15.83;66.53;100724.09;146600;569;46023;-80
2021/10/13 06:27:30;;;;;;;;;16.00;15.00;;;;;15.91;65.59;100735.66;146596;656;47020;-80
2021/10/13 06:30:05;;;;;;;;;17.25;14.75;;;;;15.97;65.40;100727.09;146604;656;46021;-80
2021/10/13 06:32:39;;;;;;;;;24.50;22.50;;;;;16.10;66.02;100726.59;146598;588;46012;-78
2021/10/13 06:35:13;;;;;;;;;43.50;36.00;;;;;16.28;65.32;100728.87;146601;613;46020;-81
2021/10/13 06:37:49;;;;;;;;;23.25;19.25;;;;;16.58;64.39;100736.69;146600;618;46016;-77
2021/10/13 06:40:23;;;;;;;;;19.75;18.50;;;;;16.80;63.35;100732.94;146602;621;46020;-80
2021/10/13 06:42:58;;;;;;;;;20.00;18.00;;;;;16.97;62.12;100735.09;146600;577;46016;-85
2021/10/13 06:45:35;;;;;;;;;18.50;17.25;;;;;17.01;62.56;100744.81;146604;570;46012;-84
2021/10/13 06:48:10;;;;;;;;;19.75;17.25;;;;;17.01;62.31;100745.72;146606;604;46016;-83
2021/10/13 06:50:44;;;;;;;;;16.25;15.00;;;;;17.03;62.49;100750.97;146621;605;46020;-83
2021/10/13 06:53:18;;;;;;;;;17.25;15.00;;;;;17.05;62.33;100760.62;146599;649;47012;-83
2021/10/13 06:55:52;;;;;;;;;20.25;17.50;;;;;17.11;62.79;100754.69;146602;673;46029;-83
2021/10/13 06:58:26;;;;;;;;;21.25;19.00;;;;;17.20;61.40;100751.41;146600;590;46012;-83
2021/10/13 07:01:00;;;;;;;;;18.50;15.50;;;;;17.40;62.32;100760.62;146602;601;46021;-84
2021/10/13 07:03:33;;;;;;;;;17.00;16.25;;;;;17.72;61.52;100763.09;146598;607;47012;-84
2021/10/13 07:06:07;;;;;;;;;18.75;18.75;;;;;18.07;61.00;100766.56;146603;621;46020;-85
2021/10/13 07:08:41;;;;;;;;;11.75;11.25;;;;;18.40;60.30;100755.84;146604;702;46012;-83
2021/10/13 07:11:16;;;;;;;;;16.75;15.50;;;;;18.76;59.94;100765.34;146603;597;46020;-83
2021/10/13 07:13:49;;;;;;;;;17.00;15.25;;;;;19.05;58.39;100764.97;146599;569;47012;-82
2021/10/13 07:16:23;;;;;;;;;16.00;16.00;;;;;19.11;58.34;100762.44;146602;625;46021;-84
2021/10/13 07:18:57;;;;;;;;;19.00;15.75;;;;;19.11;58.13;100759.81;146602;582;46016;-83
2021/10/13 07:21:31;;;;;;;;;22.50;20.00;;;;;19.14;57.87;100762.50;146601;623;47008;-83
2021/10/13 07:24:05;;;;;;;;;19.50;17.25;;;;;19.26;58.46;100767.97;146602;564;46016;-84
2021/10/13 07:26:42;;;;;;;;;18.00;17.00;;;;;19.53;58.38;100764.91;146604;612;46020;-85
2021/10/13 07:29:17;;;;;;;;;19.25;16.50;;;;;19.91;57.54;100772.50;146601;606;46017;-86
2021/10/13 07:31:51;;;;;;;;;16.25;16.25;;;;;20.24;56.70;100766.78;146606;682;46020;-85
2021/10/13 07:34:25;;;;;;;;;15.50;14.75;;;;;20.54;55.89;100770.69;146601;563;46016;-83
2021/10/13 07:36:59;;;;;;;;;19.00;16.75;;;;;20.76;54.96;100772.69;146608;646;45021;-85
2021/10/13 07:39:33;;;;;;;;;13.33;12.67;;;;;20.90;54.80;100770.19;146601;569;46034;-84
2021/10/13 07:42:07;;;;;;;;;14.50;14.50;;;;;21.02;52.62;100774.69;146601;569;46012;-86
2021/10/13 07:44:42;;;;;;;;;15.50;15.25;;;;;21.13;51.86;100773.03;146599;621;46017;-85
2021/10/13 07:47:16;;;;;;;;;15.00;13.00;;;;;21.19;53.43;100772.22;146603;569;46020;-85
2021/10/13 07:49:50;;;;;;;;;17.25;15.75;;;;;21.23;51.36;100769.59;146600;673;46012;-83
2021/10/13 07:52:24;;;;;;;;;16.00;13.75;;;;;21.36;53.12;100767.97;146604;596;46021;-85
2021/10/13 07:54:58;;;;;;;;;10.00;10.00;;;;;21.40;47.43;100760.97;146605;566;47012;-85
2021/10/13 07:57:32;;;;;;;;;11.75;10.25;;;;;21.38;51.76;100771.53;146604;598;46012;-84
2021/10/13 08:00:05;;;;;;;;;11.50;9.75;;;;;21.38;51.85;100773.28;146602;612;46017;-85
2021/10/13 08:02:40;;;;;;;;;12.25;11.75;;;;;21.45;48.42;100775.09;146604;563;47010;-86
2021/10/13 08:05:13;;;;;;;;;12.00;12.00;;;;;21.54;48.51;100777.78;146604;642;45913;-85
2021/10/13 08:07:50;;;;;;;;;12.00;9.00;;;;;21.63;51.20;100775.22;146604;581;46021;-82
2021/10/13 08:10:24;;;;;;;;;9.33;9.33;;;;;21.70;48.43;100778.78;146605;653;45913;-84
2021/10/13 08:12:59;;;;;;;;;9.67;8.67;;;;;21.76;50.43;100770.03;146604;579;47008;-86
2021/10/13 08:15:33;;;;;;;;;9.67;9.67;;;;;21.78;50.34;100771.81;146605;578;46016;-84
2021/10/13 08:18:07;;;;;;;;;10.33;10.33;;;;;21.81;49.53;100778.88;146609;694;45022;-82
2021/10/13 08:20:41;;;;;;;;;9.67;9.67;;;;;21.83;50.46;100775.34;146600;657;47013;-83
2021/10/13 08:23:15;;;;;;;;;10.33;10.00;;;;;21.79;49.01;100770.91;146608;667;46020;-81
2021/10/13 08:25:49;;;;;;;;;8.67;8.67;;;;;21.79;51.31;100770.03;146603;598;46016;-83
2021/10/13 08:28:23;;;;;;;;;6.33;6.33;;;;;21.84;49.38;100771.84;146608;567;46010;-84
2021/10/13 08:30:57;;;;;;;;;10.00;9.67;;;;;21.87;50.56;100774.50;146602;582;46016;-86
2021/10/13 08:33:33;;;;;;;;;10.67;9.00;;;;;21.89;50.49;100772.72;146603;621;47008;-86
2021/10/13 08:36:08;;;;;;;;;8.67;8.67;;;;;21.92;50.19;100772.75;146605;588;46016;-88
2021/10/13 08:38:42;;;;;;;;;10.67;10.33;;;;;21.99;49.91;100773.66;146605;630;46020;-88
2021/10/13 08:41:16;;;;;;;;;10.33;8.67;;;;;22.08;50.79;100773.69;146603;612;46012;-86
2021/10/13 08:43:51;;;;;;;;;13.00;11.67;;;;;22.17;49.19;100778.19;146609;657;46010;-85
2021/10/13 08:46:28;;;;;;;;;13.33;11.67;;;;;22.23;50.77;100767.66;146606;563;45913;-87
2021/10/13 08:49:10;;;;;;;;;7.00;7.00;;;;;22.25;47.80;100768.56;146609;586;46010;-82
2021/10/13 08:51:46;;;;;;;;;7.67;7.67;;;;;22.27;49.93;100764.12;146609;632;45913;-84
2021/10/13 08:54:28;;;;;;;;;10.67;9.67;;;;;22.25;48.66;100759.75;146608;618;46012;-85
2021/10/13 08:57:02;;;;;;;;;9.00;9.00;;;;;22.20;42.54;100764.12;146609;594;45914;-83
2021/10/13 08:59:45;;;;;;;;;8.33;8.33;;;;;21.41;50.30;100655.47;146608;604;45021;-87
2021/10/13 09:02:20;;;;;;;;;7.00;7.00;;;;;22.22;49.25;100765.91;146610;601;45913;-83
2021/10/13 09:05:15;;;;;;;;;8.33;8.00;;;;;21.41;51.76;100602.72;146608;596;47020;-84
2021/10/13 09:07:56;;;;;;;;;9.67;9.67;;;;;22.44;47.03;100776.56;146604;592;46016;-85
2021/10/13 09:10:33;;;;;;;;;9.00;9.00;;;;;22.55;48.42;100774.81;146607;574;46020;-85
2021/10/13 09:13:15;;;;;;;;;7.00;6.33;;;;;22.58;47.05;100765.13;146607;628;45914;-84
2021/10/13 09:15:54;;;;;;;;;7.00;7.00;;;;;22.64;48.71;100772.19;146610;581;46020;-83
2021/10/13 09:18:28;;;;;;;;;9.67;8.67;;;;;22.78;47.89;100759.91;146604;563;45913;-85
2021/10/13 09:21:03;;;;;;;;;8.00;8.00;;;;;22.92;47.38;100764.31;146609;594;46021;-85
2021/10/13 09:23:36;;;;;;;;;9.67;8.67;;;;;22.97;46.17;100762.59;146604;588;46016;-83
2021/10/13 09:26:15;;;;;;;;;9.33;8.33;;;;;22.99;47.88;100764.38;146603;627;47010;-87
2021/10/13 09:29:02;;;;;;;;;8.67;8.00;;;;;23.04;49.24;100765.25;146605;582;46017;-84
2021/10/13 09:31:41;;;;;;;;;11.33;10.67;;;;;23.14;48.83;100766.13;146607;700;46020;-86
2021/10/13 09:34:15;;;;;;;;;7.67;6.67;;;;;23.20;47.23;100759.97;146607;564;46012;-84
2021/10/13 09:37:01;;;;;;;;;8.00;7.67;;;;;23.24;46.46;100765.28;146607;615;46020;-84
2021/10/13 09:39:37;;;;;;;;;9.00;9.00;;;;;23.21;45.05;100759.97;146604;636;46025;-86
2021/10/13 09:42:15;;;;;;;;;7.67;7.67;;;;;23.15;43.67;100754.69;146605;559;46020;-85
2021/10/13 09:45:00;;;;;;;;;8.00;8.00;;;;;23.12;48.31;100754.69;146605;591;46033;-86
2021/10/13 09:47:36;;;;;;;;;7.33;7.33;;;;;23.17;46.35;100754.66;146605;660;46020;-83
2021/10/13 09:50:18;;;;;;;;;8.67;8.67;;;;;23.18;47.22;100762.63;146606;608;46016;-86
2021/10/13 09:52:52;;;;;;;;;8.00;8.00;;;;;23.21;47.83;100749.41;146607;602;46024;-85
2021/10/13 09:55:40;;;;;;;;;7.00;7.00;;;;;23.25;46.07;100752.91;146604;628;46016;-84
2021/10/13 09:58:26;;;;;;;;;7.00;5.33;;;;;23.28;47.60;100747.62;146610;590;46010;-83
2021/10/13 10:01:18;;;;;;;;;9.00;7.67;;;;;23.31;47.06;100749.41;146605;576;47012;-85
2021/10/13 10:03:53;;;;;;;;;8.00;7.67;;;;;23.43;46.22;100737.03;146609;655;46010;-83
2021/10/13 10:06:27;;;;;;;;;10.33;10.33;;;;;23.55;47.35;100743.16;146605;574;46016;-86
2021/10/13 10:09:07;;;;;;;;;9.00;9.00;;;;;23.54;47.52;100721.13;146610;691;46010;-84
2021/10/13 10:11:43;;;;;;;;;8.00;8.00;;;;;23.67;44.98;100732.56;146604;605;46016;-83
2021/10/13 10:14:43;;;;;;;;;10.00;8.00;;;;;23.68;49.02;100737.00;146608;572;47010;-84
2021/10/13 10:17:37;;;;;;;;;7.67;7.00;;;;;23.68;45.25;100739.63;146608;573;46016;-83
2021/10/13 10:20:11;;;;;;;;;7.33;7.33;;;;;23.72;45.85;100731.72;146607;590;46012;-89
2021/10/13 10:22:51;;;;;;;;;9.33;9.33;;;;;23.84;48.39;100732.56;146606;582;47012;-84
2021/10/13 10:25:38;;;;;;;;;8.00;8.00;;;;;23.86;41.31;100730.78;146606;636;46020;-86
2021/10/13 10:28:49;;;;;;;;;5.67;5.67;;;;;22.87;47.47;100573.09;146604;642;46017;-82
2021/10/13 10:31:37;;;;;;;;;8.00;8.00;;;;;23.72;48.07;100729.06;146608;579;46020;-86
2021/10/13 10:34:22;;;;;;;;;9.33;8.67;;;;;23.73;43.03;100729.94;146603;644;46016;-86
2021/10/13 10:37:16;;;;;;;;;9.00;8.67;;;;;23.80;47.37;100726.41;146607;623;46010;-86
2021/10/13 10:39:59;;;;;;;;;7.00;7.00;;;;;23.88;47.27;100721.94;146608;565;46033;-86
2021/10/13 10:43:02;;;;;;;;;9.67;8.67;;;;;24.00;46.95;100718.37;146608;573;46011;-86
2021/10/13 10:45:43;;;;;;;;;9.67;9.67;;;;;24.11;47.64;100727.19;146607;583;45913;-88
2021/10/13 10:49:01;;;;;;;;;9.33;8.00;;;;;24.11;45.74;100720.97;146610;578;45020;-83
2021/10/13 10:52:59;;;;;;;;;9.67;8.67;;;;;23.23;46.46;100556.28;146609;611;45914;-89
2021/10/13 10:59:49;;;;;;;;;8.33;8.33;;;;;23.57;48.26;100519.09;146607;569;45916;-90
2021/10/13 11:03:09;;;;;;;;;7.00;7.00;;;;;23.99;46.58;100549.78;146613;686;45022;-89
2021/10/13 11:06:35;;;;;;;;;6.67;5.67;;;;;25.01;46.51;100708.94;146609;577;45914;-87
2021/10/13 11:09:32;;;;;;;;;8.33;8.33;;;;;24.94;44.25;100708.13;146607;600;46020;-90
2021/10/13 11:12:06;;;;;;;;;6.67;6.33;;;;;24.83;43.12;100704.69;146602;642;46017;-88
2021/10/13 11:14:39;;;;;;;;;6.00;6.00;;;;;24.69;44.45;100698.59;146610;580;46010;-84
2021/10/13 11:17:13;;;;;;;;;8.00;6.00;;;;;24.57;45.33;100697.78;146606;630;46016;-83
2021/10/13 11:19:48;;;;;;;;;9.00;6.67;;;;;24.57;44.05;100695.13;146606;569;46021;-87
2021/10/13 11:22:22;;;;;;;;;10.00;9.00;;;;;24.57;43.66;100702.22;146606;637;47012;-88
2021/10/13 11:24:56;;;;;;;;;7.33;6.67;;;;;24.56;44.36;100695.16;146607;628;47010;-87
2021/10/13 11:27:30;;;;;;;;;8.00;8.00;;;;;24.63;45.08;100694.22;146604;645;47911;-88
2021/10/13 11:30:04;;;;;;;;;10.00;8.33;;;;;24.65;43.14;100684.50;146606;588;47010;-84
2021/10/13 11:32:44;;;;;;;;;9.00;9.00;;;;;24.60;44.90;100688.94;146604;577;46016;-88
2021/10/13 11:35:23;;;;;;;;;8.00;7.67;;;;;24.58;44.99;100693.34;146611;592;46013;-86
2021/10/13 11:37:58;;;;;;;;;9.67;9.00;;;;;24.54;45.30;100689.84;146605;610;47012;-86
2021/10/13 11:40:32;;;;;;;;;11.33;10.00;;;;;24.43;44.85;100686.41;146607;564;46010;-84
2021/10/13 11:43:15;;;;;;;;;8.67;8.67;;;;;24.31;46.59;100689.09;146606;653;46017;-86
2021/10/13 11:45:53;;;;;;;;;9.67;9.00;;;;;24.24;47.03;100680.31;146603;569;47010;-86
2021/10/13 11:48:32;;;;;;;;;12.33;10.33;;;;;24.24;46.23;100684.69;146606;640;46016;-87
2021/10/13 11:51:15;;;;;;;;;8.00;7.00;;;;;24.22;44.81;100681.19;146609;633;46010;-86
2021/10/13 11:53:53;;;;;;;;;8.00;8.00;;;;;24.19;46.79;100675.00;146604;602;46016;-86
2021/10/13 11:56:27;;;;;;;;;7.00;6.00;;;;;24.08;46.78;100670.66;146608;627;46020;-85
2021/10/13 11:59:15;;;;;;;;;6.33;6.33;;;;;23.85;47.06;100682.25;146604;570;46012;-86
2021/10/13 12:01:49;;;;;;;;;9.67;9.00;;;;;23.67;47.18;100683.12;146610;581;46010;-85
2021/10/13 12:04:23;;;;;;;;;7.67;7.67;;;;;23.57;46.53;100681.41;146604;600;46017;-87
2021/10/13 12:06:57;;;;;;;;;8.33;7.00;;;;;23.59;48.41;100673.50;146608;644;46010;-84
2021/10/13 12:09:31;;;;;;;;;10.00;10.00;;;;;23.49;47.56;100675.28;146604;591;46012;-86
2021/10/13 12:12:16;;;;;;;;;10.00;10.00;;;;;23.13;45.64;100677.09;146605;594;47010;-85